Time;durP1;ratioP1;P1;durP2;ratioP2;P2;SDS_P1;SDS_P2;PMS_P1;PMS_P2;Temp;Humidity;BMP_temperature;BMP_pressure;BME280_temperature;BME280_humidity;BME280_pressure;Samples;Min_cycle;Max_cycle;Signal;HPM_P1;HPM_P2
2024/01/03 05:00:59;;;;;;;0.90;0.80;;;10.30;97.30;;;;;;5791874;23;20484;-95
2024/01/03 05:03:26;;;;;;;4.60;1.57;;;10.20;97.30;;;;;;4990227;28;20466;-96
2024/01/03 05:05:53;;;;;;;1.27;1.17;;;10.10;97.30;;;;;;4979953;28;20175;-94
2024/01/03 05:08:19;;;;;;;0.90;0.80;;;10.10;97.30;;;;;;5003676;28;20575;-93
2024/01/03 05:10:49;;;;;;;0.80;0.70;;;10.00;97.30;;;;;;4978884;28;20908;-94
2024/01/03 05:13:19;;;;;;;0.90;0.80;;;10.10;97.30;;;;;;4975034;28;20179;-91
2024/01/03 05:15:46;;;;;;;0.90;0.80;;;10.10;97.30;;;;;;4972571;28;20856;-95
2024/01/03 05:18:37;;;;;;;0.93;0.83;;;10.10;97.30;;;;;;4972662;28;20418;-93
2024/01/03 05:21:05;;;;;;;0.80;0.70;;;10.10;97.30;;;;;;4981495;28;20194;-93
2024/01/03 05:23:31;;;;;;;0.90;0.80;;;10.10;97.30;;;;;;4976958;28;20425;-90
2024/01/03 05:25:58;;;;;;;0.80;0.70;;;10.10;97.30;;;;;;4981254;28;20418;-95
2024/01/03 05:28:24;;;;;;;0.90;0.80;;;10.10;97.30;;;;;;4990925;28;20326;-92
2024/01/03 05:30:55;;;;;;;1.00;0.90;;;10.10;97.30;;;;;;4976856;28;20549;-93
2024/01/03 05:33:21;;;;;;;0.90;0.80;;;10.10;97.30;;;;;;4977174;28;20182;-94
2024/01/03 05:35:46;;;;;;;1.00;0.90;;;10.00;97.30;;;;;;4977441;28;20422;-94
2024/01/03 05:38:12;;;;;;;1.00;0.90;;;10.00;97.30;;;;;;4976536;28;20188;-92
2024/01/03 05:40:38;;;;;;;0.93;0.83;;;10.00;97.30;;;;;;4977998;28;20191;-95
2024/01/03 05:43:03;;;;;;;4.90;1.33;;;10.00;97.30;;;;;;4978384;28;20182;-94
2024/01/03 05:45:29;;;;;;;1.27;1.20;;;10.00;97.30;;;;;;4980612;28;20225;-95
2024/01/03 05:47:55;;;;;;;2.00;1.90;;;9.90;97.30;;;;;;4986425;28;20280;-94
2024/01/03 05:50:20;;;;;;;1.07;0.97;;;9.90;97.30;;;;;;4989922;28;20208;-92
2024/01/03 05:52:46;;;;;;;2.63;1.17;;;9.90;97.30;;;;;;4978876;28;20194;-94
2024/01/03 05:55:11;;;;;;;0.90;0.80;;;9.80;97.30;;;;;;4980751;28;20181;-93
2024/01/03 05:57:37;;;;;;;0.80;0.70;;;9.80;97.30;;;;;;4987912;28;20178;-93
2024/01/03 06:00:04;;;;;;;2.90;1.23;;;9.80;97.30;;;;;;4976099;28;20192;-94
2024/01/03 06:02:30;;;;;;;1.10;1.00;;;9.80;97.30;;;;;;4975715;28;20231;-94
2024/01/03 06:04:56;;;;;;;1.00;0.90;;;9.80;97.30;;;;;;4975657;28;20456;-93
2024/01/03 06:07:22;;;;;;;1.00;0.90;;;9.90;97.30;;;;;;4975899;28;20178;-93
2024/01/03 06:09:47;;;;;;;0.90;0.80;;;9.90;97.30;;;;;;4994941;28;20215;-93
2024/01/03 06:12:13;;;;;;;1.00;0.90;;;9.80;97.30;;;;;;4976523;28;20731;-92
2024/01/03 06:14:42;;;;;;;1.03;0.93;;;9.80;97.30;;;;;;4992809;28;20281;-92
2024/01/03 06:17:07;;;;;;;0.90;0.80;;;9.90;97.30;;;;;;4972318;28;20198;-95
2024/01/03 06:19:33;;;;;;;1.00;0.90;;;9.90;97.30;;;;;;4982320;28;20449;-95
2024/01/03 06:21:59;;;;;;;1.00;0.90;;;9.90;97.30;;;;;;4983565;28;20215;-92
2024/01/03 06:24:24;;;;;;;0.90;0.80;;;9.90;97.30;;;;;;4989434;28;20200;-91
2024/01/03 06:26:50;;;;;;;0.90;0.80;;;9.90;97.30;;;;;;4986333;28;20182;-92
2024/01/03 06:29:16;;;;;;;0.90;0.80;;;9.90;97.30;;;;;;4988801;28;20182;-95
2024/01/03 06:31:41;;;;;;;0.90;0.80;;;9.90;97.30;;;;;;4985363;28;20205;-95
2024/01/03 06:34:07;;;;;;;1.10;1.00;;;9.90;97.30;;;;;;5000384;28;20228;-94
2024/01/03 06:36:33;;;;;;;5.80;1.10;;;9.80;97.30;;;;;;4995441;28;20182;-93
2024/01/03 06:38:59;;;;;;;1.00;0.90;;;9.80;97.30;;;;;;4979308;28;20174;-93
2024/01/03 06:41:25;;;;;;;0.90;0.80;;;9.90;97.30;;;;;;4990247;28;20461;-93
2024/01/03 06:43:50;;;;;;;0.90;0.80;;;9.80;97.30;;;;;;4984105;28;20190;-94
2024/01/03 06:46:16;;;;;;;1.47;1.07;;;9.80;97.30;;;;;;4975704;28;20197;-94
2024/01/03 06:48:41;;;;;;;1.57;1.30;;;9.80;97.30;;;;;;4977186;28;20169;-93
2024/01/03 06:51:07;;;;;;;0.90;0.80;;;9.80;97.30;;;;;;4996605;28;20210;-96
2024/01/03 06:53:34;;;;;;;0.90;0.80;;;9.80;97.30;;;;;;5007803;28;20182;-96
2024/01/03 06:55:59;;;;;;;1.00;0.90;;;9.70;97.30;;;;;;5007127;28;20198;-95
2024/01/03 06:58:25;;;;;;;0.90;0.80;;;9.70;97.30;;;;;;5002610;28;21038;-95
2024/01/03 07:00:51;;;;;;;0.90;0.80;;;9.70;97.30;;;;;;5011876;28;20264;-94
2024/01/03 07:03:17;;;;;;;0.80;0.70;;;9.70;97.30;;;;;;4996381;28;20202;-93
2024/01/03 07:05:43;;;;;;;1.43;1.43;;;9.70;97.30;;;;;;4983706;28;20209;-92
2024/01/03 07:08:08;;;;;;;1.03;0.93;;;9.70;97.30;;;;;;4992748;28;20414;-95
2024/01/03 07:10:34;;;;;;;0.90;0.80;;;9.80;97.30;;;;;;4984172;28;20206;-94
2024/01/03 07:13:00;;;;;;;0.80;0.70;;;9.80;97.30;;;;;;4985500;28;20197;-94
2024/01/03 07:15:29;;;;;;;1.17;1.00;;;9.90;97.30;;;;;;4987205;28;20186;-95
2024/01/03 07:17:55;;;;;;;2.00;1.43;;;9.90;97.30;;;;;;4986861;28;20422;-93
2024/01/03 07:20:24;;;;;;;0.90;0.80;;;9.90;97.30;;;;;;4989036;28;20981;-94
2024/01/03 07:22:50;;;;;;;0.97;0.87;;;9.90;97.30;;;;;;4985658;28;20426;-93
2024/01/03 07:25:16;;;;;;;1.20;1.10;;;9.90;97.30;;;;;;4986888;28;20430;-94
2024/01/03 07:27:42;;;;;;;0.90;0.80;;;9.90;97.30;;;;;;4987078;28;20653;-93
2024/01/03 07:30:09;;;;;;;1.33;1.23;;;9.90;97.30;;;;;;4988958;28;20441;-93
2024/01/03 07:32:35;;;;;;;0.80;0.70;;;9.90;97.30;;;;;;5001396;28;21010;-94
2024/01/03 07:35:01;;;;;;;0.90;0.80;;;9.90;97.30;;;;;;4990284;28;20417;-94
2024/01/03 07:37:27;;;;;;;0.80;0.70;;;9.90;97.30;;;;;;4990627;28;20472;-93
2024/01/03 07:39:52;;;;;;;0.90;0.80;;;9.90;97.30;;;;;;4992508;28;20175;-94
2024/01/03 07:42:18;;;;;;;0.90;0.80;;;9.80;97.30;;;;;;4985929;28;20982;-95
2024/01/03 07:44:43;;;;;;;0.80;0.70;;;9.90;97.30;;;;;;4984420;28;20182;-96
2024/01/03 07:47:11;;;;;;;1.23;1.13;;;9.90;97.30;;;;;;4994376;28;20225;-94
2024/01/03 07:49:37;;;;;;;0.90;0.80;;;9.90;97.30;;;;;;4998959;28;20690;-93
2024/01/03 07:52:04;;;;;;;0.97;0.87;;;9.90;97.30;;;;;;4986070;28;20480;-93
2024/01/03 07:54:30;;;;;;;1.00;0.90;;;9.90;97.30;;;;;;4969340;28;20418;-95
2024/01/03 07:56:59;;;;;;;3.23;1.30;;;9.90;97.30;;;;;;4989299;28;20992;-93
2024/01/03 07:59:24;;;;;;;1.37;1.27;;;9.90;97.30;;;;;;4986737;28;20178;-96
2024/01/03 08:01:50;;;;;;;0.90;0.80;;;9.90;97.30;;;;;;4983457;28;20520;-93
2024/01/03 08:04:16;;;;;;;3.50;3.23;;;9.90;97.30;;;;;;4976272;28;20187;-93
2024/01/03 08:06:42;;;;;;;0.80;0.70;;;9.90;97.30;;;;;;4987376;28;20405;-93
2024/01/03 08:09:08;;;;;;;1.00;0.90;;;9.90;97.30;;;;;;4972109;28;20457;-93
2024/01/03 08:11:34;;;;;;;0.90;0.80;;;10.00;97.30;;;;;;4996167;28;20477;-94
2024/01/03 08:14:00;;;;;;;0.80;0.70;;;10.00;97.30;;;;;;4998338;28;20178;-93
2024/01/03 08:16:25;;;;;;;0.90;0.80;;;10.10;97.30;;;;;;4982573;28;20193;-95
2024/01/03 08:18:51;;;;;;;1.33;1.23;;;10.20;97.30;;;;;;4983897;28;20178;-93
2024/01/03 08:21:18;;;;;;;0.90;0.80;;;10.20;97.30;;;;;;4996771;28;20285;-92
2024/01/03 08:23:44;;;;;;;0.90;0.80;;;10.20;97.30;;;;;;4993234;28;20202;-92
2024/01/03 08:26:10;;;;;;;1.30;1.20;;;10.20;97.30;;;;;;4982302;28;20429;-93
2024/01/03 08:28:37;;;;;;;0.90;0.80;;;10.20;97.30;;;;;;4990653;28;20213;-94
2024/01/03 08:31:03;;;;;;;1.43;1.33;;;10.20;97.30;;;;;;4983120;28;20214;-93
2024/01/03 08:33:28;;;;;;;0.90;0.80;;;10.20;97.30;;;;;;4992911;28;20423;-92
2024/01/03 08:35:54;;;;;;;1.00;0.90;;;10.20;97.30;;;;;;4989928;28;20187;-93
2024/01/03 08:38:20;;;;;;;1.00;0.90;;;10.20;97.30;;;;;;4981680;28;20198;-95
2024/01/03 08:40:45;;;;;;;1.00;0.90;;;10.30;97.30;;;;;;4996986;28;20218;-94
2024/01/03 08:43:11;;;;;;;3.07;1.57;;;10.40;97.30;;;;;;4994232;28;20181;-96
2024/01/03 08:45:36;;;;;;;3.37;1.00;;;10.40;97.30;;;;;;4992327;28;20210;-96
2024/01/03 08:48:03;;;;;;;0.90;0.80;;;10.50;97.30;;;;;;5012434;28;20196;-93
2024/01/03 08:50:29;;;;;;;0.90;0.80;;;10.60;97.30;;;;;;5005815;28;20214;-93
2024/01/03 08:53:10;;;;;;;4.97;1.73;;;10.50;97.30;;;;;;4991878;28;20417;-91
2024/01/03 08:55:36;;;;;;;0.90;0.80;;;10.50;97.30;;;;;;4988958;28;20421;-96
2024/01/03 08:58:02;;;;;;;0.90;0.80;;;10.50;97.30;;;;;;4990201;28;20425;-95
2024/01/03 09:00:27;;;;;;;0.80;0.70;;;10.50;97.30;;;;;;4990622;28;20233;-95
2024/01/03 09:03:05;;;;;;;0.80;0.70;;;10.50;97.30;;;;;;4989014;28;20249;-95
2024/01/03 09:05:31;;;;;;;2.73;1.67;;;10.60;97.30;;;;;;4993728;28;20199;-96
2024/01/03 09:07:56;;;;;;;1.00;0.90;;;10.60;97.30;;;;;;4991611;28;20461;-95
2024/01/03 09:10:22;;;;;;;1.33;1.23;;;10.60;97.30;;;;;;4992171;28;20182;-95
2024/01/03 09:12:49;;;;;;;0.90;0.90;;;10.60;97.30;;;;;;4997340;28;20175;-92
2024/01/03 09:15:15;;;;;;;0.80;0.70;;;10.50;97.30;;;;;;4996299;28;20183;-92
2024/01/03 09:18:03;;;;;;;0.80;0.70;;;10.50;97.30;;;;;;4998396;28;20484;-96
2024/01/03 09:20:29;;;;;;;0.90;0.80;;;10.50;97.30;;;;;;4983836;23;20333;-68
2024/01/03 09:22:54;;;;;;;1.10;1.00;;;10.50;97.30;;;;;;4958023;28;20871;-68
2024/01/03 09:25:20;;;;;;;2.70;1.03;;;10.50;97.30;;;;;;4958252;28;20195;-69
2024/01/03 09:27:45;;;;;;;0.80;0.70;;;10.50;97.30;;;;;;4949822;28;20202;-69
2024/01/03 09:30:11;;;;;;;0.90;0.80;;;10.50;97.30;;;;;;4949943;28;20269;-69
2024/01/03 09:32:36;;;;;;;1.80;1.73;;;10.50;97.30;;;;;;4950002;28;20562;-69
2024/01/03 09:35:03;;;;;;;16.90;1.63;;;10.50;97.30;;;;;;4950116;28;20187;-69
2024/01/03 09:37:29;;;;;;;1.17;1.07;;;10.50;97.30;;;;;;4948398;28;20214;-69
2024/01/03 09:39:55;;;;;;;0.80;0.70;;;10.50;97.30;;;;;;4942300;28;20939;-69
2024/01/03 09:42:22;;;;;;;1.53;1.20;;;10.60;97.30;;;;;;4929705;28;20487;-69
2024/01/03 09:44:50;;;;;;;0.80;0.70;;;10.60;97.30;;;;;;4938390;28;20271;-69
2024/01/03 09:47:16;;;;;;;0.90;0.80;;;10.60;97.30;;;;;;4945922;28;20846;-69
2024/01/03 09:49:44;;;;;;;0.90;0.80;;;10.60;97.30;;;;;;4933506;28;20530;-70
2024/01/03 09:52:12;;;;;;;1.33;1.23;;;10.60;97.30;;;;;;4941291;28;20729;-68
2024/01/03 09:54:38;;;;;;;1.00;0.90;;;10.60;97.30;;;;;;4947594;28;20441;-69
2024/01/03 09:57:06;;;;;;;5.33;3.20;;;10.70;97.30;;;;;;4944553;28;20518;-68
2024/01/03 09:59:31;;;;;;;1.00;0.90;;;10.70;97.30;;;;;;4942367;28;20479;-69
2024/01/03 10:01:58;;;;;;;0.90;0.80;;;10.80;97.30;;;;;;4940927;28;20658;-70
2024/01/03 10:04:24;;;;;;;1.00;0.90;;;10.80;97.30;;;;;;4940424;28;20180;-68
2024/01/03 10:06:54;;;;;;;0.90;0.80;;;10.90;97.30;;;;;;4942147;28;20461;-69
2024/01/03 10:09:21;;;;;;;0.93;0.83;;;10.90;97.30;;;;;;4941469;28;20446;-69
2024/01/03 10:11:51;;;;;;;0.90;0.80;;;11.00;97.30;;;;;;4936225;28;20500;-70
2024/01/03 10:14:21;;;;;;;1.10;1.00;;;11.00;97.30;;;;;;4952117;28;20822;-70
2024/01/03 10:16:48;;;;;;;1.20;1.10;;;11.10;97.30;;;;;;4936852;28;20560;-69
2024/01/03 10:19:15;;;;;;;1.10;1.00;;;11.10;97.30;;;;;;4945950;28;20422;-69
2024/01/03 10:21:52;;;;;;;1.20;1.10;;;11.10;97.30;;;;;;4932056;28;20531;-69
2024/01/03 10:24:19;;;;;;;4.93;1.33;;;11.10;97.30;;;;;;4937285;28;20463;-68
2024/01/03 10:26:45;;;;;;;0.90;0.80;;;11.10;97.30;;;;;;4939073;28;20441;-68
2024/01/03 10:29:13;;;;;;;0.90;0.90;;;11.10;97.30;;;;;;4941425;28;20433;-68
2024/01/03 10:31:39;;;;;;;0.80;0.70;;;11.20;97.30;;;;;;4943681;28;20486;-70
2024/01/03 10:34:05;;;;;;;1.00;0.90;;;11.20;97.30;;;;;;4943310;28;20427;-68
2024/01/03 10:36:37;;;;;;;1.37;0.90;;;11.20;97.30;;;;;;4958294;28;20491;-68
2024/01/03 10:39:04;;;;;;;0.90;0.80;;;11.30;97.30;;;;;;4946494;28;20435;-67
2024/01/03 10:41:31;;;;;;;1.13;1.03;;;11.40;97.30;;;;;;4943890;28;20979;-68
2024/01/03 10:44:00;;;;;;;1.07;1.00;;;11.60;97.30;;;;;;4951808;28;20475;-68
2024/01/03 10:46:27;;;;;;;0.90;0.80;;;11.70;97.30;;;;;;4939835;28;20439;-68
2024/01/03 10:48:53;;;;;;;0.80;0.70;;;11.70;97.30;;;;;;4938791;28;20440;-68
2024/01/03 10:51:22;;;;;;;1.30;1.20;;;11.80;97.30;;;;;;4947783;28;20524;-68
2024/01/03 10:53:52;;;;;;;1.00;0.90;;;11.80;97.30;;;;;;4937640;28;20802;-70
2024/01/03 10:56:19;;;;;;;0.80;0.70;;;11.80;97.30;;;;;;4933301;28;20435;-70
2024/01/03 10:58:45;;;;;;;1.00;0.90;;;11.80;97.30;;;;;;4941921;28;20947;-68
2024/01/03 11:01:38;;;;;;;0.90;0.80;;;11.90;97.30;;;;;;4946133;28;20489;-68
2024/01/03 11:04:04;;;;;;;1.00;0.90;;;12.20;97.30;;;;;;4943849;28;20312;-68
2024/01/03 11:06:56;;;;;;;1.10;1.00;;;12.40;97.30;;;;;;4942945;28;20461;-69
2024/01/03 11:09:23;;;;;;;1.00;0.90;;;12.20;97.30;;;;;;4939531;28;20915;-70
2024/01/03 11:11:48;;;;;;;0.97;0.87;;;12.00;97.30;;;;;;4944748;28;21000;-70
2024/01/03 11:14:17;;;;;;;0.90;0.80;;;11.90;97.30;;;;;;4943104;28;20423;-71
2024/01/03 11:16:44;;;;;;;0.80;0.70;;;11.70;97.30;;;;;;4940597;28;20275;-74
2024/01/03 11:19:10;;;;;;;0.87;0.77;;;11.60;97.30;;;;;;4944091;28;20930;-69
2024/01/03 11:21:39;;;;;;;8.27;2.03;;;11.60;97.30;;;;;;4946626;28;20899;-71
2024/01/03 11:24:20;;;;;;;2.00;1.60;;;11.60;97.30;;;;;;4942139;28;20450;-69
2024/01/03 11:26:55;;;;;;;3.70;1.00;;;11.70;97.30;;;;;;4944758;28;20428;-71
2024/01/03 11:29:36;;;;;;;1.07;0.97;;;11.90;97.30;;;;;;4942946;28;20425;-70
2024/01/03 11:32:08;;;;;;;2.53;1.77;;;11.80;97.30;;;;;;4945311;28;20842;-69
2024/01/03 11:34:37;;;;;;;1.20;1.10;;;11.70;97.30;;;;;;4947489;28;20429;-69
2024/01/03 11:37:04;;;;;;;1.00;0.90;;;11.70;97.30;;;;;;4943576;28;20443;-69
2024/01/03 11:39:42;;;;;;;0.83;0.73;;;11.60;97.30;;;;;;4939104;28;20458;-69
2024/01/03 11:42:08;;;;;;;1.13;1.03;;;11.60;97.30;;;;;;4941494;28;20454;-72
2024/01/03 11:44:34;;;;;;;0.90;0.80;;;11.60;97.30;;;;;;4963835;28;20514;-69
2024/01/03 11:47:05;;;;;;;0.90;0.80;;;11.60;97.30;;;;;;4949126;28;20938;-69
2024/01/03 11:49:33;;;;;;;0.90;0.80;;;11.60;97.30;;;;;;4947168;28;20445;-69
2024/01/03 11:52:01;;;;;;;2.10;1.80;;;11.70;97.30;;;;;;4940517;28;20503;-69
2024/01/03 11:54:27;;;;;;;0.90;0.80;;;11.70;97.30;;;;;;4934750;28;20430;-69
2024/01/03 11:56:56;;;;;;;1.00;0.90;;;11.80;97.30;;;;;;4939754;28;20427;-69
2024/01/03 11:59:25;;;;;;;0.80;0.70;;;11.70;97.30;;;;;;4938491;28;20453;-67
2024/01/03 12:01:58;;;;;;;0.83;0.73;;;11.60;97.30;;;;;;4947795;28;20582;-68
2024/01/03 12:04:24;;;;;;;1.00;0.90;;;11.50;97.30;;;;;;4982491;23;20522;-90
2024/01/03 12:06:49;;;;;;;0.97;0.87;;;11.50;97.30;;;;;;4972271;28;20472;-90
2024/01/03 12:09:19;;;;;;;1.10;1.00;;;11.50;97.30;;;;;;4989605;28;20414;-89
2024/01/03 12:11:44;;;;;;;0.90;0.80;;;11.70;97.30;;;;;;4972622;28;20269;-89
2024/01/03 12:14:10;;;;;;;0.90;0.80;;;12.00;97.30;;;;;;4968994;28;20458;-87
2024/01/03 12:16:46;;;;;;;1.10;1.00;;;12.00;97.30;;;;;;4975081;28;20222;-90
2024/01/03 12:19:25;;;;;;;1.47;1.10;;;11.90;97.30;;;;;;4971394;28;20190;-88
2024/01/03 12:22:08;;;;;;;1.13;1.03;;;11.80;97.30;;;;;;4981687;28;20475;-89
2024/01/03 12:24:42;;;;;;;1.00;0.90;;;11.70;97.30;;;;;;4976621;28;20495;-89
2024/01/03 12:27:08;;;;;;;1.00;0.90;;;11.70;97.30;;;;;;4970528;28;20812;-88
2024/01/03 12:29:34;;;;;;;0.80;0.70;;;11.70;97.30;;;;;;4970185;28;20541;-89
2024/01/03 12:32:20;;;;;;;0.90;0.80;;;11.70;97.30;;;;;;4970960;28;20442;-88
2024/01/03 12:34:48;;;;;;;0.80;0.70;;;11.60;97.30;;;;;;4977126;28;20552;-90
2024/01/03 12:37:14;;;;;;;1.03;0.90;;;11.60;97.30;;;;;;4969083;28;20465;-87
2024/01/03 12:39:40;;;;;;;0.90;0.80;;;11.60;97.30;;;;;;4978779;28;20501;-88
2024/01/03 12:42:11;;;;;;;0.90;0.80;;;11.60;97.30;;;;;;4971980;28;20460;-88
2024/01/03 12:44:38;;;;;;;0.90;0.80;;;11.70;97.30;;;;;;4972490;28;20418;-89
2024/01/03 12:47:08;;;;;;;0.80;0.70;;;11.70;97.30;;;;;;4982304;28;20480;-89
2024/01/03 12:49:34;;;;;;;0.90;0.80;;;11.60;97.30;;;;;;4974260;28;20449;-88
2024/01/03 12:52:01;;;;;;;2.30;2.10;;;11.60;97.30;;;;;;4984862;28;20539;-88
2024/01/03 12:54:27;;;;;;;1.13;1.03;;;11.60;97.30;;;;;;4976861;28;20490;-87
2024/01/03 12:56:53;;;;;;;0.90;0.80;;;11.70;97.30;;;;;;4979584;28;20432;-91
2024/01/03 12:59:18;;;;;;;0.90;0.80;;;11.70;97.30;;;;;;4971481;28;20533;-87
2024/01/03 13:01:44;;;;;;;0.90;0.80;;;11.70;97.30;;;;;;4971458;28;20553;-88
2024/01/03 13:04:09;;;;;;;1.17;1.07;;;11.60;97.30;;;;;;4975837;28;20250;-88
2024/01/03 13:06:35;;;;;;;0.80;0.70;;;11.60;97.30;;;;;;4983717;28;20703;-88
2024/01/03 13:09:02;;;;;;;0.93;0.83;;;11.60;97.30;;;;;;4979798;28;20352;-88
2024/01/03 13:11:27;;;;;;;0.90;0.80;;;11.60;97.30;;;;;;4970878;28;20764;-88
2024/01/03 13:13:53;;;;;;;0.80;0.70;;;11.60;97.20;;;;;;4971703;28;20513;-86
2024/01/03 13:16:18;;;;;;;0.80;0.70;;;11.50;97.20;;;;;;4976305;28;20262;-87
2024/01/03 13:18:44;;;;;;;1.07;0.97;;;11.50;97.30;;;;;;4971689;28;20547;-88
2024/01/03 13:21:10;;;;;;;0.90;0.80;;;11.50;97.30;;;;;;4971340;28;20193;-87
2024/01/03 13:23:36;;;;;;;0.80;0.70;;;11.50;97.20;;;;;;4976184;28;20237;-87
2024/01/03 13:26:01;;;;;;;0.80;0.70;;;11.50;97.30;;;;;;4980449;28;20178;-88
2024/01/03 13:28:27;;;;;;;0.90;0.80;;;11.50;97.30;;;;;;4977788;28;21002;-87
2024/01/03 13:30:52;;;;;;;0.90;0.80;;;11.50;97.30;;;;;;4973817;28;20198;-88
2024/01/03 13:33:18;;;;;;;0.80;0.70;;;11.50;97.30;;;;;;4971431;28;20226;-88
2024/01/03 13:35:43;;;;;;;0.80;0.70;;;11.50;97.20;;;;;;4975489;28;20182;-88
2024/01/03 13:38:11;;;;;;;0.80;0.70;;;11.50;97.30;;;;;;4980186;28;20278;-89
2024/01/03 13:40:38;;;;;;;1.00;0.90;;;11.50;97.30;;;;;;4979053;28;20224;-87
2024/01/03 13:43:04;;;;;;;0.90;0.80;;;11.50;97.30;;;;;;4972379;28;20540;-87
2024/01/03 13:45:30;;;;;;;2.30;0.90;;;11.50;97.30;;;;;;4973116;28;20999;-88
2024/01/03 13:47:56;;;;;;;1.47;1.10;;;11.40;97.30;;;;;;4973167;28;20505;-89
2024/01/03 13:50:21;;;;;;;0.93;0.83;;;11.40;97.30;;;;;;4973643;28;20178;-87
2024/01/03 13:52:47;;;;;;;2.23;2.07;;;11.50;97.30;;;;;;4974795;28;20533;-88
2024/01/03 13:55:13;;;;;;;0.83;0.73;;;11.40;97.30;;;;;;4976766;28;20532;-87
2024/01/03 13:57:38;;;;;;;0.90;0.80;;;11.40;97.30;;;;;;4972012;28;20197;-85
2024/01/03 14:00:09;;;;;;;0.90;0.80;;;11.40;97.30;;;;;;4971022;28;20198;-89
2024/01/03 14:02:35;;;;;;;1.47;1.27;;;11.50;97.30;;;;;;4975391;28;20261;-89
2024/01/03 14:05:00;;;;;;;0.90;0.80;;;11.50;97.30;;;;;;4980351;28;20946;-88
2024/01/03 14:07:26;;;;;;;1.27;1.20;;;11.50;97.30;;;;;;4972226;28;20442;-87
2024/01/03 14:09:52;;;;;;;0.90;0.80;;;11.60;97.20;;;;;;4977444;28;20178;-87
2024/01/03 14:12:18;;;;;;;1.40;1.30;;;11.60;96.90;;;;;;4970677;28;20689;-87
2024/01/03 14:14:44;;;;;;;1.27;0.93;;;11.70;96.70;;;;;;4978162;28;20528;-88
2024/01/03 14:17:09;;;;;;;3.70;3.23;;;11.70;96.80;;;;;;4969849;28;20430;-87
2024/01/03 14:19:35;;;;;;;1.70;1.33;;;11.80;96.50;;;;;;4974349;28;20193;-88
2024/01/03 14:22:02;;;;;;;3.80;1.50;;;11.80;97.30;;;;;;4974572;28;20269;-87
2024/01/03 14:24:28;;;;;;;8.90;3.20;;;11.70;97.30;;;;;;4972215;28;20684;-87
2024/01/03 14:26:53;;;;;;;11.33;1.67;;;11.60;97.30;;;;;;4974059;28;20433;-89
2024/01/03 14:29:19;;;;;;;12.20;3.90;;;11.60;97.30;;;;;;4980341;28;20178;-87
2024/01/03 14:31:45;;;;;;;12.60;3.40;;;11.60;97.30;;;;;;4978188;28;20216;-88
2024/01/03 14:34:10;;;;;;;1.73;1.70;;;11.60;97.30;;;;;;4971343;28;20210;-87
2024/01/03 14:36:36;;;;;;;1.30;1.20;;;11.60;97.10;;;;;;4973507;28;20190;-88
2024/01/03 14:39:07;;;;;;;2.17;2.00;;;11.60;97.10;;;;;;4977007;28;20605;-86
2024/01/03 14:41:33;;;;;;;2.60;2.17;;;11.50;97.20;;;;;;4970894;28;20193;-88
2024/01/03 14:44:04;;;;;;;2.00;1.90;;;11.50;97.30;;;;;;4970796;28;20441;-89
2024/01/03 14:46:33;;;;;;;1.60;1.50;;;11.50;97.30;;;;;;4979309;28;20425;-89
2024/01/03 14:48:59;;;;;;;12.00;1.70;;;11.50;97.30;;;;;;4972948;28;21196;-87
2024/01/03 14:51:24;;;;;;;4.90;2.63;;;11.50;97.30;;;;;;4974694;28;20509;-85
2024/01/03 14:53:52;;;;;;;1.00;0.90;;;11.50;97.30;;;;;;4973637;28;20473;-89
2024/01/03 14:56:20;;;;;;;1.10;1.00;;;11.50;97.30;;;;;;4974306;28;20182;-89
2024/01/03 14:58:46;;;;;;;0.90;0.80;;;11.50;97.30;;;;;;4971875;28;20512;-88
2024/01/03 15:01:12;;;;;;;1.37;1.37;;;11.50;97.30;;;;;;4978321;28;21032;-88
2024/01/03 15:03:38;;;;;;;1.03;0.93;;;11.50;97.30;;;;;;4974674;28;20225;-88
2024/01/03 15:06:04;;;;;;;10.53;1.83;;;11.40;97.30;;;;;;4989758;28;20452;-88
2024/01/03 15:08:30;;;;;;;2.17;0.97;;;11.30;97.30;;;;;;4977667;28;20449;-88
2024/01/03 15:10:56;;;;;;;0.93;0.83;;;11.30;97.30;;;;;;4984776;28;20859;-87
2024/01/03 15:13:21;;;;;;;0.80;0.80;;;11.20;97.30;;;;;;4977923;28;20201;-88
2024/01/03 15:15:47;;;;;;;0.97;0.87;;;11.20;97.30;;;;;;4978112;28;20178;-89
2024/01/03 15:18:13;;;;;;;1.13;1.03;;;11.30;97.30;;;;;;4990904;28;20214;-89
2024/01/03 15:20:40;;;;;;;1.40;1.30;;;11.20;97.30;;;;;;4995737;28;20964;-89
2024/01/03 15:23:07;;;;;;;1.00;0.90;;;11.30;97.30;;;;;;4984592;28;20438;-87
2024/01/03 15:25:33;;;;;;;0.80;0.70;;;11.20;97.30;;;;;;4972949;28;20940;-88
2024/01/03 15:27:59;;;;;;;5.53;1.47;;;11.20;97.30;;;;;;4975853;28;20927;-89
2024/01/03 15:30:29;;;;;;;0.90;0.80;;;11.20;97.30;;;;;;4982502;28;20429;-88
2024/01/03 15:33:01;;;;;;;0.87;0.77;;;11.20;97.30;;;;;;4980530;28;20442;-88
2024/01/03 15:35:27;;;;;;;0.90;0.80;;;11.20;97.30;;;;;;4976850;28;20971;-87
2024/01/03 15:37:57;;;;;;;1.27;1.17;;;11.20;97.30;;;;;;4983551;28;20520;-87
2024/01/03 15:40:26;;;;;;;1.03;0.93;;;11.20;97.30;;;;;;4982594;28;20183;-88
2024/01/03 15:42:52;;;;;;;1.47;1.37;;;11.20;97.30;;;;;;4979431;28;20448;-89
2024/01/03 15:45:22;;;;;;;1.13;1.03;;;11.20;97.30;;;;;;4978528;28;20422;-88
2024/01/03 15:47:47;;;;;;;0.90;0.80;;;11.20;97.30;;;;;;4979788;28;20432;-88
2024/01/03 15:50:14;;;;;;;2.40;1.10;;;11.10;97.30;;;;;;4977593;28;20503;-89
2024/01/03 15:52:39;;;;;;;0.90;0.80;;;11.10;97.30;;;;;;4981221;28;20214;-89
2024/01/03 15:55:06;;;;;;;1.00;0.90;;;11.00;97.30;;;;;;4974253;28;21006;-89
2024/01/03 15:57:32;;;;;;;2.50;2.30;;;10.90;97.30;;;;;;4976328;28;20433;-89
2024/01/03 15:59:57;;;;;;;16.63;2.30;;;10.90;97.30;;;;;;4974750;28;20481;-89
2024/01/03 16:02:23;;;;;;;1.30;1.20;;;10.90;97.30;;;;;;4979867;28;20256;-88
2024/01/03 16:04:49;;;;;;;0.90;0.90;;;10.80;97.30;;;;;;4980350;28;20680;-89
2024/01/03 16:07:14;;;;;;;0.80;0.70;;;10.80;97.30;;;;;;4976090;28;20186;-88
2024/01/03 16:09:40;;;;;;;1.00;0.90;;;10.70;97.30;;;;;;4981950;28;20329;-88
2024/01/03 16:12:06;;;;;;;2.03;1.90;;;10.70;97.30;;;;;;4977214;28;20206;-88
2024/01/03 16:14:36;;;;;;;1.00;0.90;;;10.70;97.30;;;;;;4977820;28;20245;-89
2024/01/03 16:17:02;;;;;;;1.00;0.90;;;10.70;97.30;;;;;;4976252;28;20425;-88
2024/01/03 16:19:28;;;;;;;0.90;0.80;;;10.70;97.30;;;;;;4973742;28;20939;-89
2024/01/03 16:21:53;;;;;;;2.30;2.13;;;10.70;97.30;;;;;;4973131;28;20569;-87
2024/01/03 16:24:19;;;;;;;0.90;0.80;;;10.70;97.30;;;;;;4975928;28;20692;-88
2024/01/03 16:26:56;;;;;;;1.00;0.90;;;10.70;97.30;;;;;;4976531;28;20657;-89
2024/01/03 16:29:24;;;;;;;1.07;0.97;;;10.70;97.30;;;;;;4974245;28;20229;-89
2024/01/03 16:31:54;;;;;;;2.83;1.20;;;10.70;97.30;;;;;;4975482;28;20458;-90
2024/01/03 16:34:25;;;;;;;0.90;0.80;;;10.70;97.30;;;;;;4972561;28;20496;-88
2024/01/03 16:36:59;;;;;;;0.97;0.87;;;10.70;97.30;;;;;;4980683;28;20504;-88
2024/01/03 16:39:26;;;;;;;0.90;0.80;;;10.60;97.30;;;;;;4975404;28;20810;-89
2024/01/03 16:41:53;;;;;;;1.10;1.00;;;10.60;97.30;;;;;;4971210;28;20984;-91
2024/01/03 16:44:19;;;;;;;0.90;0.80;;;10.60;97.30;;;;;;4971645;28;20438;-90
2024/01/03 16:46:45;;;;;;;23.83;1.37;;;10.60;97.30;;;;;;4973797;28;20517;-89
2024/01/03 16:49:11;;;;;;;1.00;0.90;;;10.60;97.30;;;;;;4979779;28;20434;-89
2024/01/03 16:51:39;;;;;;;1.37;1.27;;;10.50;97.30;;;;;;4975863;28;20531;-89
2024/01/03 16:54:05;;;;;;;0.90;0.80;;;10.60;97.30;;;;;;4976108;28;20438;-89
2024/01/03 16:56:30;;;;;;;1.57;1.47;;;10.60;97.30;;;;;;4976341;28;20449;-89
2024/01/03 16:58:58;;;;;;;1.00;0.90;;;10.60;97.30;;;;;;4975451;28;20241;-90
2024/01/03 17:01:31;;;;;;;1.33;0.80;;;10.50;97.30;;;;;;4975045;28;20185;-88
2024/01/03 17:03:56;;;;;;;1.10;1.00;;;10.50;97.30;;;;;;4972432;28;20476;-89
2024/01/03 17:06:22;;;;;;;0.90;0.80;;;10.50;97.30;;;;;;4974536;28;20841;-89
2024/01/03 17:08:49;;;;;;;1.73;1.17;;;10.40;97.30;;;;;;4974459;28;20233;-89
2024/01/03 17:11:22;;;;;;;0.90;0.80;;;10.40;97.30;;;;;;4966819;28;20494;-88
2024/01/03 17:13:47;;;;;;;1.40;1.30;;;10.30;97.30;;;;;;4971471;28;20441;-90
2024/01/03 17:16:13;;;;;;;1.30;1.20;;;10.30;97.30;;;;;;4971712;28;20469;-89
2024/01/03 17:18:39;;;;;;;3.00;1.70;;;10.30;97.30;;;;;;4971723;28;20174;-89
2024/01/03 17:21:04;;;;;;;0.90;0.90;;;10.20;97.30;;;;;;4971869;28;20545;-89
2024/01/03 17:23:30;;;;;;;1.10;1.00;;;10.20;97.30;;;;;;4972260;28;20948;-89
2024/01/03 17:25:56;;;;;;;1.30;1.20;;;10.20;97.30;;;;;;4971316;28;20187;-89
2024/01/03 17:28:21;;;;;;;1.07;0.97;;;10.20;97.30;;;;;;4971688;28;20182;-89
2024/01/03 17:30:47;;;;;;;1.37;1.20;;;10.20;97.30;;;;;;4971401;28;20580;-90
2024/01/03 17:33:13;;;;;;;0.90;0.80;;;10.20;97.30;;;;;;4965560;28;20203;-89
2024/01/03 17:35:41;;;;;;;0.90;0.80;;;10.20;97.30;;;;;;4971533;28;20189;-89
2024/01/03 17:38:07;;;;;;;0.87;0.80;;;10.20;97.30;;;;;;4973756;28;20240;-89
2024/01/03 17:40:36;;;;;;;1.03;0.93;;;10.20;97.30;;;;;;4972967;28;20819;-89
2024/01/03 17:43:01;;;;;;;1.20;0.80;;;10.20;97.30;;;;;;4971908;28;20222;-90
2024/01/03 17:45:28;;;;;;;1.00;0.90;;;10.20;97.30;;;;;;4972726;28;20422;-89
2024/01/03 17:47:53;;;;;;;1.20;1.10;;;10.20;97.30;;;;;;4973444;28;20225;-89